sensor_id;sensor_type;location;lat;lon;timestamp;P1;durP1;ratioP1;P2;durP2;ratioP2
10045;SDS011;5063;50.878;4.742;2023-02-18T00:01:31;14.53;;;10.57;;
10045;SDS011;5063;50.878;4.742;2023-02-18T00:03:58;10.87;;;9.33;;
10045;SDS011;5063;50.878;4.742;2023-02-18T00:06:26;13.00;;;8.97;;
10045;SDS011;5063;50.878;4.742;2023-02-18T00:08:53;8.97;;;7.70;;
10045;SDS011;5063;50.878;4.742;2023-02-18T00:11:20;12.83;;;8.77;;
10045;SDS011;5063;50.878;4.742;2023-02-18T00:13:50;11.43;;;8.37;;
10045;SDS011;5063;50.878;4.742;2023-02-18T00:16:17;12.20;;;8.77;;
10045;SDS011;5063;50.878;4.742;2023-02-18T00:18:43;11.97;;;7.87;;
10045;SDS011;5063;50.878;4.742;2023-02-18T00:21:09;10.67;;;7.83;;
10045;SDS011;5063;50.878;4.742;2023-02-18T00:23:35;9.83;;;7.50;;
10045;SDS011;5063;50.878;4.742;2023-02-18T00:26:11;8.10;;;7.03;;
10045;SDS011;5063;50.878;4.742;2023-02-18T00:28:38;8.63;;;6.93;;
10045;SDS011;5063;50.878;4.742;2023-02-18T00:31:08;8.33;;;7.07;;
10045;SDS011;5063;50.878;4.742;2023-02-18T00:33:40;8.97;;;7.07;;
10045;SDS011;5063;50.878;4.742;2023-02-18T00:36:07;11.33;;;7.37;;
10045;SDS011;5063;50.878;4.742;2023-02-18T00:38:35;10.00;;;7.37;;
10045;SDS011;5063;50.878;4.742;2023-02-18T00:41:01;7.20;;;6.33;;
10045;SDS011;5063;50.878;4.742;2023-02-18T00:43:27;11.67;;;7.20;;
10045;SDS011;5063;50.878;4.742;2023-02-18T00:45:52;7.83;;;6.60;;
10045;SDS011;5063;50.878;4.742;2023-02-18T00:48:18;7.73;;;6.70;;
10045;SDS011;5063;50.878;4.742;2023-02-18T00:50:44;6.80;;;6.03;;
10045;SDS011;5063;50.878;4.742;2023-02-18T00:53:11;7.43;;;5.90;;
10045;SDS011;5063;50.878;4.742;2023-02-18T00:55:44;6.53;;;5.80;;
10045;SDS011;5063;50.878;4.742;2023-02-18T00:58:12;7.07;;;6.13;;
10045;SDS011;5063;50.878;4.742;2023-02-18T01:00:39;7.00;;;5.83;;
10045;SDS011;5063;50.878;4.742;2023-02-18T01:03:05;6.20;;;5.50;;
10045;SDS011;5063;50.878;4.742;2023-02-18T01:05:31;6.67;;;4.93;;
10045;SDS011;5063;50.878;4.742;2023-02-18T01:07:57;8.00;;;5.67;;
10045;SDS011;5063;50.878;4.742;2023-02-18T01:10:23;5.23;;;4.73;;
10045;SDS011;5063;50.878;4.742;2023-02-18T01:12:49;8.60;;;5.37;;
10045;SDS011;5063;50.878;4.742;2023-02-18T01:15:15;6.27;;;5.07;;
10045;SDS011;5063;50.878;4.742;2023-02-18T01:17:41;5.70;;;4.70;;
10045;SDS011;5063;50.878;4.742;2023-02-18T01:20:07;6.20;;;4.23;;
10045;SDS011;5063;50.878;4.742;2023-02-18T01:22:34;4.57;;;4.17;;
10045;SDS011;5063;50.878;4.742;2023-02-18T01:25:00;6.30;;;4.10;;
10045;SDS011;5063;50.878;4.742;2023-02-18T01:27:25;4.20;;;3.80;;
10045;SDS011;5063;50.878;4.742;2023-02-18T01:29:51;5.03;;;3.30;;
10045;SDS011;5063;50.878;4.742;2023-02-18T01:32:17;4.33;;;3.50;;
10045;SDS011;5063;50.878;4.742;2023-02-18T01:34:43;4.53;;;3.63;;
10045;SDS011;5063;50.878;4.742;2023-02-18T01:37:08;3.97;;;2.57;;
10045;SDS011;5063;50.878;4.742;2023-02-18T01:39:34;3.10;;;2.70;;
10045;SDS011;5063;50.878;4.742;2023-02-18T01:42:00;2.97;;;2.67;;
10045;SDS011;5063;50.878;4.742;2023-02-18T01:44:27;4.50;;;2.40;;
10045;SDS011;5063;50.878;4.742;2023-02-18T01:46:53;2.83;;;1.90;;
10045;SDS011;5063;50.878;4.742;2023-02-18T01:49:21;3.13;;;2.23;;
10045;SDS011;5063;50.878;4.742;2023-02-18T01:51:51;2.13;;;1.93;;
10045;SDS011;5063;50.878;4.742;2023-02-18T01:54:27;2.77;;;1.80;;
10045;SDS011;5063;50.878;4.742;2023-02-18T01:56:57;1.93;;;1.83;;
10045;SDS011;5063;50.878;4.742;2023-02-18T01:59:49;2.47;;;1.70;;
10045;SDS011;5063;50.878;4.742;2023-02-18T02:02:16;1.93;;;1.83;;
10045;SDS011;5063;50.878;4.742;2023-02-18T02:04:44;1.70;;;1.60;;
10045;SDS011;5063;50.878;4.742;2023-02-18T02:07:10;1.43;;;1.33;;
10045;SDS011;5063;50.878;4.742;2023-02-18T02:09:36;1.60;;;1.50;;
10045;SDS011;5063;50.878;4.742;2023-02-18T02:31:56;2.17;;;1.93;;
10045;SDS011;5063;50.878;4.742;2023-02-18T02:45:47;2.57;;;2.33;;
10045;SDS011;5063;50.878;4.742;2023-02-18T02:51:39;2.50;;;2.30;;
10045;SDS011;5063;50.878;4.742;2023-02-18T02:54:26;2.53;;;2.33;;
10045;SDS011;5063;50.878;4.742;2023-02-18T02:57:08;2.00;;;1.90;;
10045;SDS011;5063;50.878;4.742;2023-02-18T03:00:04;2.03;;;1.93;;
10045;SDS011;5063;50.878;4.742;2023-02-18T03:02:50;3.50;;;2.20;;
10045;SDS011;5063;50.878;4.742;2023-02-18T03:05:46;1.97;;;1.87;;
10045;SDS011;5063;50.878;4.742;2023-02-18T03:11:02;2.13;;;1.90;;
10045;SDS011;5063;50.878;4.742;2023-02-18T03:13:43;1.70;;;1.60;;
10045;SDS011;5063;50.878;4.742;2023-02-18T03:21:30;1.87;;;1.77;;
10045;SDS011;5063;50.878;4.742;2023-02-18T03:24:02;2.77;;;2.03;;
10045;SDS011;5063;50.878;4.742;2023-02-18T03:26:32;2.23;;;1.83;;
10045;SDS011;5063;50.878;4.742;2023-02-18T03:29:02;1.93;;;1.80;;
10045;SDS011;5063;50.878;4.742;2023-02-18T03:31:29;2.40;;;2.20;;
10045;SDS011;5063;50.878;4.742;2023-02-18T03:34:03;1.70;;;1.60;;
10045;SDS011;5063;50.878;4.742;2023-02-18T03:36:33;2.30;;;2.10;;
10045;SDS011;5063;50.878;4.742;2023-02-18T03:39:07;2.00;;;1.83;;
10045;SDS011;5063;50.878;4.742;2023-02-18T03:41:39;2.20;;;2.00;;
10045;SDS011;5063;50.878;4.742;2023-02-18T03:44:07;2.13;;;1.90;;
10045;SDS011;5063;50.878;4.742;2023-02-18T03:46:34;2.43;;;1.77;;
10045;SDS011;5063;50.878;4.742;2023-02-18T03:49:02;2.30;;;2.10;;
10045;SDS011;5063;50.878;4.742;2023-02-18T03:51:28;2.60;;;2.00;;
10045;SDS011;5063;50.878;4.742;2023-02-18T03:53:54;2.40;;;2.20;;
10045;SDS011;5063;50.878;4.742;2023-02-18T03:56:20;1.80;;;1.70;;
10045;SDS011;5063;50.878;4.742;2023-02-18T03:58:46;2.00;;;1.90;;
10045;SDS011;5063;50.878;4.742;2023-02-18T04:01:12;3.50;;;1.80;;
10045;SDS011;5063;50.878;4.742;2023-02-18T04:03:38;2.40;;;2.10;;
10045;SDS011;5063;50.878;4.742;2023-02-18T04:06:04;2.90;;;1.97;;
10045;SDS011;5063;50.878;4.742;2023-02-18T04:08:30;3.00;;;1.83;;
10045;SDS011;5063;50.878;4.742;2023-02-18T04:10:56;2.33;;;2.03;;
10045;SDS011;5063;50.878;4.742;2023-02-18T04:13:21;2.90;;;2.07;;
10045;SDS011;5063;50.878;4.742;2023-02-18T04:15:48;2.50;;;2.30;;
10045;SDS011;5063;50.878;4.742;2023-02-18T04:18:14;2.30;;;2.10;;
10045;SDS011;5063;50.878;4.742;2023-02-18T04:20:41;2.23;;;2.03;;
10045;SDS011;5063;50.878;4.742;2023-02-18T04:23:07;3.27;;;2.20;;
10045;SDS011;5063;50.878;4.742;2023-02-18T04:25:33;3.37;;;2.10;;
10045;SDS011;5063;50.878;4.742;2023-02-18T04:27:59;2.60;;;2.40;;
10045;SDS011;5063;50.878;4.742;2023-02-18T04:30:25;2.33;;;2.00;;
10045;SDS011;5063;50.878;4.742;2023-02-18T04:32:51;4.13;;;2.13;;
10045;SDS011;5063;50.878;4.742;2023-02-18T04:35:16;2.03;;;1.93;;
10045;SDS011;5063;50.878;4.742;2023-02-18T04:37:42;2.20;;;2.00;;
10045;SDS011;5063;50.878;4.742;2023-02-18T04:40:08;2.20;;;2.00;;
10045;SDS011;5063;50.878;4.742;2023-02-18T04:42:34;1.80;;;1.70;;
10045;SDS011;5063;50.878;4.742;2023-02-18T04:45:01;2.20;;;2.00;;
10045;SDS011;5063;50.878;4.742;2023-02-18T04:47:26;2.50;;;2.13;;
10045;SDS011;5063;50.878;4.742;2023-02-18T04:49:52;2.73;;;2.10;;
10045;SDS011;5063;50.878;4.742;2023-02-18T04:52:18;2.67;;;2.10;;
10045;SDS011;5063;50.878;4.742;2023-02-18T04:54:44;3.00;;;2.70;;
10045;SDS011;5063;50.878;4.742;2023-02-18T04:57:10;2.30;;;2.10;;
10045;SDS011;5063;50.878;4.742;2023-02-18T04:59:36;2.40;;;2.03;;
10045;SDS011;5063;50.878;4.742;2023-02-18T05:02:02;3.37;;;2.30;;
10045;SDS011;5063;50.878;4.742;2023-02-18T05:04:28;2.50;;;2.30;;
10045;SDS011;5063;50.878;4.742;2023-02-18T05:06:54;2.40;;;2.20;;
10045;SDS011;5063;50.878;4.742;2023-02-18T05:09:20;2.57;;;2.37;;
10045;SDS011;5063;50.878;4.742;2023-02-18T05:11:46;2.27;;;2.07;;
10045;SDS011;5063;50.878;4.742;2023-02-18T05:14:12;2.33;;;2.13;;
10045;SDS011;5063;50.878;4.742;2023-02-18T05:16:38;2.30;;;2.10;;
10045;SDS011;5063;50.878;4.742;2023-02-18T05:19:04;1.77;;;1.67;;
10045;SDS011;5063;50.878;4.742;2023-02-18T05:21:30;1.97;;;1.63;;
10045;SDS011;5063;50.878;4.742;2023-02-18T05:23:56;2.37;;;1.63;;
10045;SDS011;5063;50.878;4.742;2023-02-18T05:26:24;2.10;;;1.90;;
10045;SDS011;5063;50.878;4.742;2023-02-18T05:28:50;1.83;;;1.73;;
10045;SDS011;5063;50.878;4.742;2023-02-18T05:31:16;2.27;;;1.70;;
10045;SDS011;5063;50.878;4.742;2023-02-18T05:33:42;1.80;;;1.70;;
10045;SDS011;5063;50.878;4.742;2023-02-18T05:36:07;2.43;;;2.10;;
10045;SDS011;5063;50.878;4.742;2023-02-18T05:38:33;3.50;;;2.17;;
10045;SDS011;5063;50.878;4.742;2023-02-18T05:40:59;2.20;;;1.90;;
10045;SDS011;5063;50.878;4.742;2023-02-18T05:43:25;3.13;;;2.00;;
10045;SDS011;5063;50.878;4.742;2023-02-18T05:45:50;1.83;;;1.70;;
10045;SDS011;5063;50.878;4.742;2023-02-18T05:48:16;1.90;;;1.80;;
10045;SDS011;5063;50.878;4.742;2023-02-18T05:50:42;1.50;;;1.40;;
10045;SDS011;5063;50.878;4.742;2023-02-18T05:53:08;1.40;;;1.30;;
10045;SDS011;5063;50.878;4.742;2023-02-18T05:55:33;2.20;;;1.20;;
10045;SDS011;5063;50.878;4.742;2023-02-18T05:58:03;1.53;;;1.20;;
10045;SDS011;5063;50.878;4.742;2023-02-18T06:00:30;1.23;;;1.13;;
10045;SDS011;5063;50.878;4.742;2023-02-18T06:02:56;2.07;;;1.20;;
10045;SDS011;5063;50.878;4.742;2023-02-18T06:05:22;1.73;;;1.20;;
10045;SDS011;5063;50.878;4.742;2023-02-18T06:07:48;2.47;;;1.57;;
10045;SDS011;5063;50.878;4.742;2023-02-18T06:10:14;5.50;;;1.80;;
10045;SDS011;5063;50.878;4.742;2023-02-18T06:12:42;3.53;;;1.70;;
10045;SDS011;5063;50.878;4.742;2023-02-18T06:15:08;5.00;;;2.00;;
10045;SDS011;5063;50.878;4.742;2023-02-18T06:17:34;8.37;;;2.47;;
10045;SDS011;5063;50.878;4.742;2023-02-18T06:20:00;4.60;;;2.20;;
10045;SDS011;5063;50.878;4.742;2023-02-18T06:22:25;4.57;;;1.97;;
10045;SDS011;5063;50.878;4.742;2023-02-18T06:24:51;7.73;;;2.17;;
10045;SDS011;5063;50.878;4.742;2023-02-18T06:27:17;6.97;;;2.40;;
10045;SDS011;5063;50.878;4.742;2023-02-18T06:29:43;5.77;;;2.00;;
10045;SDS011;5063;50.878;4.742;2023-02-18T06:32:08;6.63;;;2.73;;
10045;SDS011;5063;50.878;4.742;2023-02-18T06:34:34;8.13;;;2.10;;
10045;SDS011;5063;50.878;4.742;2023-02-18T06:37:00;8.47;;;2.60;;
10045;SDS011;5063;50.878;4.742;2023-02-18T06:39:25;4.20;;;2.07;;
10045;SDS011;5063;50.878;4.742;2023-02-18T06:41:51;6.70;;;2.40;;
10045;SDS011;5063;50.878;4.742;2023-02-18T06:44:17;6.10;;;2.50;;
10045;SDS011;5063;50.878;4.742;2023-02-18T06:46:43;6.30;;;2.40;;
10045;SDS011;5063;50.878;4.742;2023-02-18T06:49:09;9.73;;;2.37;;
10045;SDS011;5063;50.878;4.742;2023-02-18T06:51:35;12.53;;;2.90;;
10045;SDS011;5063;50.878;4.742;2023-02-18T06:54:01;7.97;;;2.17;;
10045;SDS011;5063;50.878;4.742;2023-02-18T06:56:26;9.07;;;2.40;;
10045;SDS011;5063;50.878;4.742;2023-02-18T06:58:52;7.40;;;3.00;;
10045;SDS011;5063;50.878;4.742;2023-02-18T07:01:18;11.37;;;2.77;;
10045;SDS011;5063;50.878;4.742;2023-02-18T07:03:43;9.60;;;2.70;;
10045;SDS011;5063;50.878;4.742;2023-02-18T07:06:09;9.70;;;2.80;;
10045;SDS011;5063;50.878;4.742;2023-02-18T07:08:35;9.63;;;3.33;;
10045;SDS011;5063;50.878;4.742;2023-02-18T07:11:01;13.67;;;2.60;;
10045;SDS011;5063;50.878;4.742;2023-02-18T07:13:28;7.73;;;2.70;;
10045;SDS011;5063;50.878;4.742;2023-02-18T07:15:53;10.67;;;2.73;;
10045;SDS011;5063;50.878;4.742;2023-02-18T07:18:19;12.87;;;3.20;;
10045;SDS011;5063;50.878;4.742;2023-02-18T07:20:45;11.40;;;3.13;;
10045;SDS011;5063;50.878;4.742;2023-02-18T07:23:11;6.63;;;2.90;;
10045;SDS011;5063;50.878;4.742;2023-02-18T07:25:36;8.27;;;3.00;;
10045;SDS011;5063;50.878;4.742;2023-02-18T07:28:02;15.33;;;2.37;;
10045;SDS011;5063;50.878;4.742;2023-02-18T07:30:28;11.27;;;2.63;;
10045;SDS011;5063;50.878;4.742;2023-02-18T07:32:53;9.87;;;2.40;;
10045;SDS011;5063;50.878;4.742;2023-02-18T07:35:19;9.40;;;3.17;;
10045;SDS011;5063;50.878;4.742;2023-02-18T07:37:46;12.07;;;2.83;;
10045;SDS011;5063;50.878;4.742;2023-02-18T07:40:14;17.13;;;2.80;;
10045;SDS011;5063;50.878;4.742;2023-02-18T07:42:42;12.47;;;2.50;;
10045;SDS011;5063;50.878;4.742;2023-02-18T07:45:08;14.30;;;3.40;;
10045;SDS011;5063;50.878;4.742;2023-02-18T07:47:35;6.80;;;2.20;;
10045;SDS011;5063;50.878;4.742;2023-02-18T07:50:00;10.60;;;2.83;;
10045;SDS011;5063;50.878;4.742;2023-02-18T07:52:26;9.37;;;2.57;;
10045;SDS011;5063;50.878;4.742;2023-02-18T07:54:52;7.50;;;2.40;;
10045;SDS011;5063;50.878;4.742;2023-02-18T07:57:18;6.27;;;2.60;;
10045;SDS011;5063;50.878;4.742;2023-02-18T07:59:43;11.50;;;2.80;;
10045;SDS011;5063;50.878;4.742;2023-02-18T08:02:16;6.87;;;2.57;;
10045;SDS011;5063;50.878;4.742;2023-02-18T08:04:44;5.57;;;2.53;;
10045;SDS011;5063;50.878;4.742;2023-02-18T08:07:13;8.13;;;3.13;;
10045;SDS011;5063;50.878;4.742;2023-02-18T08:09:41;9.60;;;3.13;;
10045;SDS011;5063;50.878;4.742;2023-02-18T08:12:07;7.53;;;2.50;;
10045;SDS011;5063;50.878;4.742;2023-02-18T08:14:33;8.07;;;2.33;;
10045;SDS011;5063;50.878;4.742;2023-02-18T08:16:59;12.07;;;2.83;;
10045;SDS011;5063;50.878;4.742;2023-02-18T08:19:24;8.17;;;1.90;;
10045;SDS011;5063;50.878;4.742;2023-02-18T08:21:50;12.53;;;2.87;;
10045;SDS011;5063;50.878;4.742;2023-02-18T08:24:16;5.43;;;2.13;;
10045;SDS011;5063;50.878;4.742;2023-02-18T08:26:42;8.33;;;2.60;;
10045;SDS011;5063;50.878;4.742;2023-02-18T08:29:08;10.83;;;2.53;;
10045;SDS011;5063;50.878;4.742;2023-02-18T08:31:34;9.73;;;2.60;;
10045;SDS011;5063;50.878;4.742;2023-02-18T08:34:00;9.20;;;2.60;;
10045;SDS011;5063;50.878;4.742;2023-02-18T08:36:28;10.27;;;2.80;;
10045;SDS011;5063;50.878;4.742;2023-02-18T08:38:55;7.97;;;2.80;;
10045;SDS011;5063;50.878;4.742;2023-02-18T08:41:21;10.23;;;2.27;;
10045;SDS011;5063;50.878;4.742;2023-02-18T08:43:47;4.33;;;1.77;;
10045;SDS011;5063;50.878;4.742;2023-02-18T08:46:14;12.07;;;2.77;;
10045;SDS011;5063;50.878;4.742;2023-02-18T08:48:40;11.23;;;2.50;;
10045;SDS011;5063;50.878;4.742;2023-02-18T08:51:16;13.07;;;2.70;;
10045;SDS011;5063;50.878;4.742;2023-02-18T08:53:47;9.17;;;2.60;;
10045;SDS011;5063;50.878;4.742;2023-02-18T08:56:13;6.60;;;2.03;;
10045;SDS011;5063;50.878;4.742;2023-02-18T08:58:40;11.07;;;2.30;;
10045;SDS011;5063;50.878;4.742;2023-02-18T09:01:07;9.20;;;2.03;;
10045;SDS011;5063;50.878;4.742;2023-02-18T09:03:34;6.00;;;2.30;;
10045;SDS011;5063;50.878;4.742;2023-02-18T09:06:00;6.87;;;2.07;;
10045;SDS011;5063;50.878;4.742;2023-02-18T09:08:26;9.67;;;2.20;;
10045;SDS011;5063;50.878;4.742;2023-02-18T09:10:56;8.83;;;1.90;;
10045;SDS011;5063;50.878;4.742;2023-02-18T09:13:23;6.47;;;1.63;;
10045;SDS011;5063;50.878;4.742;2023-02-18T09:16:02;6.40;;;2.17;;
10045;SDS011;5063;50.878;4.742;2023-02-18T09:18:30;4.63;;;2.10;;
10045;SDS011;5063;50.878;4.742;2023-02-18T09:20:58;9.33;;;2.07;;
10045;SDS011;5063;50.878;4.742;2023-02-18T09:23:24;7.43;;;2.00;;
10045;SDS011;5063;50.878;4.742;2023-02-18T09:25:51;2.53;;;1.73;;
10045;SDS011;5063;50.878;4.742;2023-02-18T09:28:17;7.30;;;1.80;;
10045;SDS011;5063;50.878;4.742;2023-02-18T09:30:43;10.63;;;1.80;;
10045;SDS011;5063;50.878;4.742;2023-02-18T09:33:09;8.73;;;2.03;;
10045;SDS011;5063;50.878;4.742;2023-02-18T09:35:38;3.63;;;1.60;;
10045;SDS011;5063;50.878;4.742;2023-02-18T09:38:05;4.93;;;1.57;;
10045;SDS011;5063;50.878;4.742;2023-02-18T09:40:32;6.10;;;1.63;;
10045;SDS011;5063;50.878;4.742;2023-02-18T09:43:01;8.03;;;1.70;;
10045;SDS011;5063;50.878;4.742;2023-02-18T09:45:27;5.97;;;1.70;;
10045;SDS011;5063;50.878;4.742;2023-02-18T09:47:54;8.03;;;1.80;;
10045;SDS011;5063;50.878;4.742;2023-02-18T09:52:58;5.00;;;1.70;;
10045;SDS011;5063;50.878;4.742;2023-02-18T09:58:02;5.20;;;1.73;;
10045;SDS011;5063;50.878;4.742;2023-02-18T10:03:57;5.10;;;1.67;;
10045;SDS011;5063;50.878;4.742;2023-02-18T10:06:26;4.40;;;1.43;;
10045;SDS011;5063;50.878;4.742;2023-02-18T10:08:55;5.43;;;2.07;;
10045;SDS011;5063;50.878;4.742;2023-02-18T10:11:30;4.40;;;2.10;;
10045;SDS011;5063;50.878;4.742;2023-02-18T10:13:59;3.43;;;1.90;;
10045;SDS011;5063;50.878;4.742;2023-02-18T10:16:27;4.87;;;1.90;;
10045;SDS011;5063;50.878;4.742;2023-02-18T10:18:53;5.53;;;2.00;;
10045;SDS011;5063;50.878;4.742;2023-02-18T10:21:26;7.53;;;2.03;;
10045;SDS011;5063;50.878;4.742;2023-02-18T10:26:44;2.17;;;1.70;;
10045;SDS011;5063;50.878;4.742;2023-02-18T10:29:15;7.13;;;2.10;;
10045;SDS011;5063;50.878;4.742;2023-02-18T10:31:44;6.03;;;2.60;;
10045;SDS011;5063;50.878;4.742;2023-02-18T10:34:47;6.50;;;2.33;;
10045;SDS011;5063;50.878;4.742;2023-02-18T10:37:33;6.03;;;2.43;;
10045;SDS011;5063;50.878;4.742;2023-02-18T10:40:12;8.60;;;2.03;;
10045;SDS011;5063;50.878;4.742;2023-02-18T10:42:45;7.00;;;2.40;;
10045;SDS011;5063;50.878;4.742;2023-02-18T10:47:49;7.93;;;2.03;;
10045;SDS011;5063;50.878;4.742;2023-02-18T10:50:28;4.23;;;2.03;;
10045;SDS011;5063;50.878;4.742;2023-02-18T10:55:46;7.13;;;2.17;;
10045;SDS011;5063;50.878;4.742;2023-02-18T10:58:23;6.80;;;2.20;;
10045;SDS011;5063;50.878;4.742;2023-02-18T11:00:51;3.30;;;2.20;;
10045;SDS011;5063;50.878;4.742;2023-02-18T11:03:19;5.97;;;2.47;;
10045;SDS011;5063;50.878;4.742;2023-02-18T11:05:48;8.03;;;2.03;;
10045;SDS011;5063;50.878;4.742;2023-02-18T11:08:17;6.43;;;2.10;;
10045;SDS011;5063;50.878;4.742;2023-02-18T11:10:47;5.67;;;2.27;;
10045;SDS011;5063;50.878;4.742;2023-02-18T11:13:15;3.53;;;2.07;;
10045;SDS011;5063;50.878;4.742;2023-02-18T11:15:54;6.20;;;2.50;;
10045;SDS011;5063;50.878;4.742;2023-02-18T11:18:37;6.50;;;2.27;;
10045;SDS011;5063;50.878;4.742;2023-02-18T11:21:08;6.37;;;2.50;;
10045;SDS011;5063;50.878;4.742;2023-02-18T11:23:51;4.87;;;2.43;;
10045;SDS011;5063;50.878;4.742;2023-02-18T11:26:21;7.47;;;2.40;;
10045;SDS011;5063;50.878;4.742;2023-02-18T11:29:00;5.60;;;2.30;;
10045;SDS011;5063;50.878;4.742;2023-02-18T11:31:37;5.67;;;2.47;;
10045;SDS011;5063;50.878;4.742;2023-02-18T11:34:20;6.60;;;2.40;;
10045;SDS011;5063;50.878;4.742;2023-02-18T11:36:48;4.00;;;1.87;;
10045;SDS011;5063;50.878;4.742;2023-02-18T11:41:55;10.47;;;2.47;;
10045;SDS011;5063;50.878;4.742;2023-02-18T11:44:30;4.83;;;2.30;;
10045;SDS011;5063;50.878;4.742;2023-02-18T11:49:30;5.77;;;2.43;;
10045;SDS011;5063;50.878;4.742;2023-02-18T11:52:17;9.43;;;2.33;;
10045;SDS011;5063;50.878;4.742;2023-02-18T11:54:58;5.90;;;2.30;;
10045;SDS011;5063;50.878;4.742;2023-02-18T11:57:29;7.50;;;2.23;;
10045;SDS011;5063;50.878;4.742;2023-02-18T11:59:58;7.13;;;2.10;;
10045;SDS011;5063;50.878;4.742;2023-02-18T12:05:07;9.17;;;2.20;;
10045;SDS011;5063;50.878;4.742;2023-02-18T12:10:20;4.07;;;2.07;;
10045;SDS011;5063;50.878;4.742;2023-02-18T12:15:29;8.73;;;2.00;;
10045;SDS011;5063;50.878;4.742;2023-02-18T12:23:57;9.83;;;3.17;;
10045;SDS011;5063;50.878;4.742;2023-02-18T12:29:28;10.80;;;2.57;;
10045;SDS011;5063;50.878;4.742;2023-02-18T12:53:31;9.43;;;2.40;;
10045;SDS011;5063;50.878;4.742;2023-02-18T13:01:32;4.97;;;2.53;;
10045;SDS011;5063;50.878;4.742;2023-02-18T13:06:46;4.83;;;1.70;;
10045;SDS011;5063;50.878;4.742;2023-02-18T13:13:07;8.07;;;2.50;;
10045;SDS011;5063;50.878;4.742;2023-02-18T13:17:59;7.97;;;2.10;;
10045;SDS011;5063;50.878;4.742;2023-02-18T13:23:05;8.60;;;2.90;;
10045;SDS011;5063;50.878;4.742;2023-02-18T13:25:36;8.23;;;2.57;;
10045;SDS011;5063;50.878;4.742;2023-02-18T13:28:08;5.80;;;2.30;;
10045;SDS011;5063;50.878;4.742;2023-02-18T13:34:16;11.50;;;2.67;;
10045;SDS011;5063;50.878;4.742;2023-02-18T13:39:33;5.50;;;2.40;;
10045;SDS011;5063;50.878;4.742;2023-02-18T13:42:11;7.67;;;2.27;;
10045;SDS011;5063;50.878;4.742;2023-02-18T13:53:33;5.90;;;2.47;;
10045;SDS011;5063;50.878;4.742;2023-02-18T13:58:26;7.73;;;2.80;;
10045;SDS011;5063;50.878;4.742;2023-02-18T14:01:13;6.23;;;2.13;;
10045;SDS011;5063;50.878;4.742;2023-02-18T14:08:40;4.90;;;2.10;;
10045;SDS011;5063;50.878;4.742;2023-02-18T14:13:42;5.27;;;2.17;;
10045;SDS011;5063;50.878;4.742;2023-02-18T14:16:23;6.17;;;2.40;;
10045;SDS011;5063;50.878;4.742;2023-02-18T14:21:20;5.27;;;2.37;;
10045;SDS011;5063;50.878;4.742;2023-02-18T14:23:59;5.97;;;1.93;;
10045;SDS011;5063;50.878;4.742;2023-02-18T14:26:30;7.20;;;2.03;;
10045;SDS011;5063;50.878;4.742;2023-02-18T14:29:18;3.57;;;2.13;;
10045;SDS011;5063;50.878;4.742;2023-02-18T14:32:02;6.63;;;2.27;;
10045;SDS011;5063;50.878;4.742;2023-02-18T14:34:42;8.23;;;2.70;;
10045;SDS011;5063;50.878;4.742;2023-02-18T14:37:16;4.47;;;1.97;;
10045;SDS011;5063;50.878;4.742;2023-02-18T14:39:59;5.47;;;2.20;;
10045;SDS011;5063;50.878;4.742;2023-02-18T14:50:22;6.60;;;2.13;;
10045;SDS011;5063;50.878;4.742;2023-02-18T14:52:58;4.70;;;2.50;;
10045;SDS011;5063;50.878;4.742;2023-02-18T14:55:47;7.27;;;2.47;;
10045;SDS011;5063;50.878;4.742;2023-02-18T15:01:31;10.37;;;2.53;;
10045;SDS011;5063;50.878;4.742;2023-02-18T15:03:59;5.17;;;2.20;;
10045;SDS011;5063;50.878;4.742;2023-02-18T15:11:49;5.13;;;2.53;;
10045;SDS011;5063;50.878;4.742;2023-02-18T15:14:32;7.90;;;2.20;;
10045;SDS011;5063;50.878;4.742;2023-02-18T15:17:00;9.77;;;2.33;;
10045;SDS011;5063;50.878;4.742;2023-02-18T15:19:29;3.83;;;2.30;;
10045;SDS011;5063;50.878;4.742;2023-02-18T15:22:03;5.13;;;2.17;;
10045;SDS011;5063;50.878;4.742;2023-02-18T15:24:36;7.40;;;2.17;;
10045;SDS011;5063;50.878;4.742;2023-02-18T15:27:09;6.57;;;2.23;;
10045;SDS011;5063;50.878;4.742;2023-02-18T15:29:35;3.40;;;2.23;;
10045;SDS011;5063;50.878;4.742;2023-02-18T15:32:11;4.93;;;2.70;;
10045;SDS011;5063;50.878;4.742;2023-02-18T15:34:41;4.27;;;2.20;;
10045;SDS011;5063;50.878;4.742;2023-02-18T15:37:10;5.37;;;2.40;;
10045;SDS011;5063;50.878;4.742;2023-02-18T15:39:37;7.37;;;1.90;;
10045;SDS011;5063;50.878;4.742;2023-02-18T15:44:56;3.20;;;2.00;;
10045;SDS011;5063;50.878;4.742;2023-02-18T15:47:27;6.43;;;2.00;;
10045;SDS011;5063;50.878;4.742;2023-02-18T15:49:54;4.03;;;1.90;;
10045;SDS011;5063;50.878;4.742;2023-02-18T15:52:27;3.10;;;1.90;;
10045;SDS011;5063;50.878;4.742;2023-02-18T15:54:56;4.97;;;2.33;;
10045;SDS011;5063;50.878;4.742;2023-02-18T15:57:27;5.00;;;2.37;;
10045;SDS011;5063;50.878;4.742;2023-02-18T16:02:36;5.60;;;2.17;;
10045;SDS011;5063;50.878;4.742;2023-02-18T16:05:25;6.60;;;2.73;;
10045;SDS011;5063;50.878;4.742;2023-02-18T16:07:57;5.73;;;2.10;;
10045;SDS011;5063;50.878;4.742;2023-02-18T16:13:00;6.00;;;2.50;;
10045;SDS011;5063;50.878;4.742;2023-02-18T16:15:30;6.43;;;2.30;;
10045;SDS011;5063;50.878;4.742;2023-02-18T16:18:02;5.90;;;2.67;;
10045;SDS011;5063;50.878;4.742;2023-02-18T16:20:30;5.90;;;2.30;;
10045;SDS011;5063;50.878;4.742;2023-02-18T16:22:59;5.27;;;2.13;;
10045;SDS011;5063;50.878;4.742;2023-02-18T16:30:38;7.20;;;2.63;;
10045;SDS011;5063;50.878;4.742;2023-02-18T16:33:05;5.33;;;2.40;;
10045;SDS011;5063;50.878;4.742;2023-02-18T16:35:32;6.10;;;2.80;;
10045;SDS011;5063;50.878;4.742;2023-02-18T16:37:57;4.80;;;2.20;;
10045;SDS011;5063;50.878;4.742;2023-02-18T16:42:49;4.43;;;2.50;;
10045;SDS011;5063;50.878;4.742;2023-02-18T16:45:16;6.40;;;2.83;;
10045;SDS011;5063;50.878;4.742;2023-02-18T16:47:43;5.17;;;2.50;;
10045;SDS011;5063;50.878;4.742;2023-02-18T16:50:29;4.40;;;2.50;;
10045;SDS011;5063;50.878;4.742;2023-02-18T16:52:57;7.23;;;2.40;;
10045;SDS011;5063;50.878;4.742;2023-02-18T16:55:24;8.33;;;2.73;;
10045;SDS011;5063;50.878;4.742;2023-02-18T16:57:52;4.60;;;2.60;;
10045;SDS011;5063;50.878;4.742;2023-02-18T17:00:19;5.50;;;2.73;;
10045;SDS011;5063;50.878;4.742;2023-02-18T17:02:46;9.10;;;2.30;;
10045;SDS011;5063;50.878;4.742;2023-02-18T17:05:21;3.83;;;2.20;;
10045;SDS011;5063;50.878;4.742;2023-02-18T17:08:17;4.73;;;2.40;;
10045;SDS011;5063;50.878;4.742;2023-02-18T17:10:47;7.33;;;2.70;;
10045;SDS011;5063;50.878;4.742;2023-02-18T17:13:15;5.80;;;2.43;;
10045;SDS011;5063;50.878;4.742;2023-02-18T17:15:43;4.07;;;2.10;;
10045;SDS011;5063;50.878;4.742;2023-02-18T17:18:09;4.43;;;2.60;;
10045;SDS011;5063;50.878;4.742;2023-02-18T17:20:35;3.40;;;2.43;;
10045;SDS011;5063;50.878;4.742;2023-02-18T17:23:01;4.43;;;2.40;;
10045;SDS011;5063;50.878;4.742;2023-02-18T17:25:29;4.40;;;2.57;;
10045;SDS011;5063;50.878;4.742;2023-02-18T17:28:00;3.73;;;2.70;;
10045;SDS011;5063;50.878;4.742;2023-02-18T17:30:26;4.87;;;2.77;;
10045;SDS011;5063;50.878;4.742;2023-02-18T17:32:53;4.10;;;3.50;;
10045;SDS011;5063;50.878;4.742;2023-02-18T17:35:20;7.03;;;3.50;;
10045;SDS011;5063;50.878;4.742;2023-02-18T17:37:47;6.93;;;3.80;;
10045;SDS011;5063;50.878;4.742;2023-02-18T17:40:17;5.93;;;3.47;;
10045;SDS011;5063;50.878;4.742;2023-02-18T17:42:44;8.00;;;3.33;;
10045;SDS011;5063;50.878;4.742;2023-02-18T17:45:32;4.33;;;2.80;;
10045;SDS011;5063;50.878;4.742;2023-02-18T17:48:01;5.67;;;2.87;;
10045;SDS011;5063;50.878;4.742;2023-02-18T17:50:28;7.80;;;3.50;;
10045;SDS011;5063;50.878;4.742;2023-02-18T17:52:55;4.23;;;3.03;;
10045;SDS011;5063;50.878;4.742;2023-02-18T17:55:22;8.63;;;3.57;;
10045;SDS011;5063;50.878;4.742;2023-02-18T17:57:51;4.90;;;3.10;;
10045;SDS011;5063;50.878;4.742;2023-02-18T18:00:19;7.67;;;3.57;;
10045;SDS011;5063;50.878;4.742;2023-02-18T18:02:47;6.53;;;4.07;;
10045;SDS011;5063;50.878;4.742;2023-02-18T18:05:20;4.27;;;3.87;;
10045;SDS011;5063;50.878;4.742;2023-02-18T18:07:54;6.13;;;3.57;;
10045;SDS011;5063;50.878;4.742;2023-02-18T18:10:22;5.23;;;4.20;;
10045;SDS011;5063;50.878;4.742;2023-02-18T18:12:55;9.23;;;4.40;;